createdAt,value
2024-05-09T00:00:35.788Z,22.88
2024-05-09T00:03:12.204Z,23.88
2024-05-09T00:05:43.248Z,22.92
2024-05-09T00:08:13.128Z,25.70
2024-05-09T00:10:42.616Z,27.15
2024-05-09T00:13:12.403Z,29.30
2024-05-09T00:15:41.849Z,24.63
2024-05-09T00:18:14.004Z,24.08
2024-05-09T00:20:43.845Z,24.60
2024-05-09T00:23:14.189Z,25.52
2024-05-09T00:25:44.988Z,27.92
2024-05-09T00:28:14.622Z,24.13
2024-05-09T00:30:44.272Z,23.10
2024-05-09T00:33:16.591Z,26.13
2024-05-09T00:35:46.124Z,24.05
2024-05-09T00:38:15.581Z,24.48
2024-05-09T00:40:45.011Z,22.30
2024-05-09T00:43:15.208Z,20.52
2024-05-09T00:45:45.065Z,24.35
2024-05-09T00:48:20.748Z,23.23
2024-05-09T00:50:51.001Z,21.10
2024-05-09T00:53:21.430Z,21.23
2024-05-09T00:55:51.012Z,23.58
2024-05-09T00:58:22.800Z,21.67
2024-05-09T01:00:52.876Z,19.20
2024-05-09T01:03:25.048Z,19.05
2024-05-09T01:05:54.757Z,20.75
2024-05-09T01:08:24.086Z,23.48
2024-05-09T01:10:53.482Z,22.67
2024-05-09T01:13:22.896Z,23.65
2024-05-09T01:15:53.960Z,19.20
2024-05-09T01:18:26.043Z,17.38
2024-05-09T01:20:55.603Z,22.33
2024-05-09T01:23:27.582Z,22.73
2024-05-09T01:25:57.059Z,17.38
2024-05-09T01:28:26.438Z,19.75
2024-05-09T01:30:56.006Z,18.02
2024-05-09T01:33:25.536Z,17.52
2024-05-09T01:35:55.006Z,19.60
2024-05-09T01:38:27.052Z,16.67
2024-05-09T01:40:56.474Z,17.13
2024-05-09T01:43:25.858Z,16.77
2024-05-09T01:45:55.194Z,16.02
2024-05-09T01:48:24.795Z,17.17
2024-05-09T01:50:54.355Z,13.90
2024-05-09T01:53:23.758Z,14.82
2024-05-09T01:55:55.776Z,15.07
2024-05-09T01:58:25.176Z,13.25
2024-05-09T02:00:55.088Z,15.38
2024-05-09T02:03:24.660Z,15.40
2024-05-09T02:05:54.225Z,12.88
2024-05-09T02:08:24.383Z,17.23
2024-05-09T02:10:56.537Z,13.45
2024-05-09T02:13:25.919Z,13.40
2024-05-09T02:15:55.482Z,10.50
2024-05-09T02:18:25.082Z,12.02
2024-05-09T02:20:54.591Z,14.85
2024-05-09T02:23:23.954Z,10.70
2024-05-09T02:25:55.941Z,11.68
2024-05-09T02:28:25.319Z,14.13
2024-05-09T02:30:54.691Z,11.27
2024-05-09T02:33:24.238Z,11.27
2024-05-09T02:35:53.678Z,10.05
2024-05-09T02:38:20.519Z,9.00
2024-05-09T02:40:49.930Z,9.20
2024-05-09T02:43:19.358Z,9.93
2024-05-09T02:45:48.690Z,9.90
2024-05-09T02:48:15.635Z,11.70
2024-05-09T02:50:45.868Z,9.70
2024-05-09T02:53:13.530Z,10.68
2024-05-09T02:55:43.704Z,11.32
2024-05-09T02:58:10.817Z,10.30
2024-05-09T03:00:43.272Z,13.35
2024-05-09T03:03:15.134Z,13.30
2024-05-09T03:05:45.622Z,14.95
2024-05-09T03:08:12.855Z,12.23
2024-05-09T03:10:42.676Z,12.27
2024-05-09T03:13:11.708Z,12.82
2024-05-09T03:15:44.197Z,12.95
2024-05-09T03:18:11.810Z,12.85
2024-05-09T03:20:43.830Z,11.48
2024-05-09T03:23:10.962Z,12.32
2024-05-09T03:25:40.601Z,13.63
2024-05-09T03:28:07.457Z,13.75
2024-05-09T03:30:41.810Z,12.20
2024-05-09T03:33:15.508Z,11.48
2024-05-09T03:35:45.627Z,12.30
2024-05-09T03:38:15.278Z,12.20
2024-05-09T03:40:48.601Z,11.32
2024-05-09T03:43:18.999Z,12.00
2024-05-09T03:45:47.645Z,11.50
2024-05-09T03:48:19.854Z,10.13
2024-05-09T03:50:47.161Z,12.25
2024-05-09T03:53:17.233Z,8.40
2024-05-09T03:55:47.221Z,12.48
2024-05-09T03:58:16.656Z,10.68
2024-05-09T04:00:43.561Z,10.55
2024-05-09T04:03:13.608Z,10.40
2024-05-09T04:05:44.449Z,11.00
2024-05-09T04:08:15.795Z,11.05
2024-05-09T04:10:43.091Z,10.55
2024-05-09T04:13:12.801Z,11.75
2024-05-09T04:15:39.794Z,11.65
2024-05-09T04:18:09.290Z,8.65
2024-05-09T04:20:39.587Z,9.43
2024-05-09T04:23:16.640Z,10.00
2024-05-09T04:25:45.228Z,9.55
2024-05-09T04:28:15.209Z,8.93
2024-05-09T04:30:42.756Z,11.55
2024-05-09T04:33:14.369Z,13.30
2024-05-09T04:35:42.138Z,10.52
2024-05-09T04:38:11.904Z,9.30
2024-05-09T04:40:41.420Z,11.60
2024-05-09T04:43:17.168Z,9.35
2024-05-09T04:45:44.187Z,10.38
2024-05-09T04:48:13.758Z,12.50
2024-05-09T04:50:40.995Z,11.30
2024-05-09T04:53:11.699Z,8.75
2024-05-09T04:55:41.394Z,12.60
2024-05-09T04:58:11.481Z,8.70
2024-05-09T05:00:39.744Z,8.45
2024-05-09T05:03:14.527Z,7.00
2024-05-09T05:05:45.085Z,8.77
2024-05-09T05:08:16.124Z,6.47
2024-05-09T05:10:47.731Z,14.77
2024-05-09T05:13:23.841Z,7.93
2024-05-09T05:15:53.317Z,8.38
2024-05-09T05:18:23.086Z,10.77
2024-05-09T05:20:50.213Z,10.70
2024-05-09T05:23:21.338Z,6.82
2024-05-09T05:25:52.797Z,7.55
2024-05-09T05:28:23.208Z,5.80
2024-05-09T05:30:50.407Z,7.90
2024-05-09T05:33:22.059Z,7.10
2024-05-09T05:35:49.203Z,6.60
2024-05-09T05:38:19.487Z,6.63
2024-05-09T05:40:47.417Z,4.95
2024-05-09T05:43:21.500Z,7.43
2024-05-09T05:45:48.289Z,7.43
2024-05-09T05:48:19.895Z,6.03
2024-05-09T05:50:46.944Z,8.95
2024-05-09T05:53:16.678Z,8.63
2024-05-09T05:55:43.486Z,7.95
2024-05-09T05:58:14.355Z,5.65
2024-05-09T06:00:44.122Z,9.02
2024-05-09T06:03:14.569Z,6.05
2024-05-09T06:05:43.677Z,8.18
2024-05-09T06:08:13.999Z,5.82
2024-05-09T06:10:41.908Z,5.85
2024-05-09T06:13:13.519Z,8.93
2024-05-09T06:15:44.014Z,8.40
2024-05-09T06:18:13.872Z,6.07
2024-05-09T06:20:42.281Z,6.55
2024-05-09T06:23:13.287Z,5.63
2024-05-09T06:25:40.543Z,5.53
2024-05-09T06:28:09.998Z,7.43
2024-05-09T06:30:40.323Z,5.70
2024-05-09T06:33:16.089Z,7.38
2024-05-09T06:35:43.885Z,7.82
2024-05-09T06:38:13.682Z,10.40
2024-05-09T06:40:42.899Z,6.25
2024-05-09T06:43:14.726Z,9.52
2024-05-09T06:45:42.630Z,6.18
2024-05-09T06:48:14.898Z,5.57
2024-05-09T06:50:41.918Z,10.23
2024-05-09T06:53:11.368Z,7.30
2024-05-09T06:55:38.353Z,5.97
2024-05-09T06:58:09.018Z,6.38
2024-05-09T07:00:39.605Z,7.70
2024-05-09T07:03:12.108Z,5.07
2024-05-09T07:05:43.176Z,6.10
2024-05-09T07:08:13.034Z,5.68
2024-05-09T07:10:39.847Z,6.22
2024-05-09T07:13:11.535Z,6.07
2024-05-09T07:15:38.820Z,5.40
2024-05-09T07:18:12.780Z,4.38
2024-05-09T07:20:42.960Z,5.65
2024-05-09T07:23:12.915Z,8.02
2024-05-09T07:25:40.631Z,4.70
2024-05-09T07:28:13.059Z,7.35
2024-05-09T07:30:39.860Z,5.55
2024-05-09T07:33:09.425Z,6.93
2024-05-09T07:35:36.520Z,6.53
2024-05-09T07:38:08.675Z,5.90
2024-05-09T07:40:37.095Z,7.00
2024-05-09T07:43:07.305Z,5.80
2024-05-09T07:53:37.300Z,4.82
2024-05-09T07:56:00.517Z,5.38
2024-05-09T07:58:30.030Z,6.05
2024-05-09T08:00:56.994Z,5.32
2024-05-09T08:03:26.606Z,7.05
2024-05-09T08:05:54.385Z,5.57
2024-05-09T08:08:26.426Z,6.97
2024-05-09T08:10:53.391Z,5.53
2024-05-09T08:13:23.202Z,7.38
2024-05-09T08:15:50.274Z,5.75
2024-05-09T08:18:20.343Z,4.40
2024-05-09T08:20:48.829Z,7.30
2024-05-09T08:23:18.354Z,5.68
2024-05-09T08:25:48.105Z,4.80
2024-05-09T08:28:17.892Z,5.68
2024-05-09T08:30:45.175Z,6.70
2024-05-09T08:33:15.125Z,8.80
2024-05-09T08:35:42.027Z,5.50
2024-05-09T08:38:11.899Z,4.97
2024-05-09T08:40:39.156Z,4.72
2024-05-09T08:43:13.038Z,9.85
2024-05-09T08:45:43.122Z,5.00
2024-05-09T08:48:16.097Z,4.00
2024-05-09T08:50:45.020Z,6.13
2024-05-09T08:53:15.492Z,8.60
2024-05-09T08:55:44.026Z,6.68
2024-05-09T08:58:19.347Z,6.50
2024-05-09T09:00:47.103Z,3.70
2024-05-09T09:03:18.797Z,5.75
2024-05-09T09:05:48.942Z,3.92
2024-05-09T09:08:18.531Z,3.88
2024-05-09T09:10:46.595Z,4.72
2024-05-09T09:13:18.674Z,3.95
2024-05-09T09:15:49.021Z,3.95
2024-05-09T09:18:19.558Z,5.93
2024-05-09T09:20:46.767Z,4.70
2024-05-09T09:23:16.879Z,6.25
2024-05-09T09:25:43.794Z,7.53
2024-05-09T09:28:13.582Z,4.78
2024-05-09T09:30:43.425Z,4.63
2024-05-09T09:33:13.285Z,2.80
2024-05-09T09:35:42.191Z,4.50
2024-05-09T09:38:11.901Z,4.68
2024-05-09T09:40:46.728Z,3.35
2024-05-09T09:43:22.400Z,3.40
2024-05-09T09:45:55.144Z,4.25
2024-05-09T09:48:24.683Z,3.40
2024-05-09T09:50:52.180Z,5.07
2024-05-09T09:53:22.116Z,5.38
2024-05-09T09:55:48.963Z,8.00
2024-05-09T09:58:19.845Z,4.60
2024-05-09T10:00:46.990Z,7.28
2024-05-09T10:03:19.308Z,4.82
2024-05-09T10:05:47.486Z,5.63
2024-05-09T10:08:17.794Z,4.03
2024-05-09T10:10:46.740Z,5.85
2024-05-09T10:13:16.533Z,2.63
2024-05-09T10:15:45.504Z,6.05
2024-05-09T10:18:15.607Z,3.53
2024-05-09T10:20:46.297Z,5.25
2024-05-09T10:23:26.830Z,2.83
2024-05-09T10:25:57.984Z,3.08
2024-05-09T10:28:30.710Z,4.72
2024-05-09T10:31:03.170Z,4.00
2024-05-09T10:33:39.799Z,3.63
2024-05-09T10:36:16.719Z,4.53
2024-05-09T10:38:43.834Z,4.13
2024-05-09T10:41:13.708Z,4.10
2024-05-09T10:43:41.334Z,5.13
2024-05-09T10:46:11.741Z,4.57
2024-05-09T10:48:39.670Z,2.15
2024-05-09T10:51:14.045Z,4.35
2024-05-09T10:53:47.918Z,4.32
2024-05-09T10:56:17.730Z,3.03
2024-05-09T10:58:44.994Z,5.07
2024-05-09T11:01:15.922Z,4.60
2024-05-09T11:03:47.016Z,3.83
2024-05-09T11:06:17.185Z,4.70
2024-05-09T11:08:47.089Z,4.07
2024-05-09T11:11:16.693Z,3.65
2024-05-09T11:13:43.596Z,3.00
2024-05-09T11:16:21.298Z,4.50
2024-05-09T11:18:58.841Z,4.00
2024-05-09T11:21:26.095Z,5.75
2024-05-09T11:23:58.386Z,5.20
2024-05-09T11:26:28.090Z,5.30
2024-05-09T11:28:57.504Z,3.00
2024-05-09T11:31:24.574Z,4.22
2024-05-09T11:33:57.085Z,4.03
2024-05-09T11:36:24.197Z,4.85
2024-05-09T11:38:53.565Z,3.88
2024-05-09T11:41:23.719Z,3.50
2024-05-09T11:43:53.093Z,7.85
2024-05-09T11:46:20.007Z,3.38
2024-05-09T11:48:49.670Z,4.15
2024-05-09T11:51:16.499Z,2.88
2024-05-09T11:53:45.833Z,4.85
2024-05-09T11:56:15.311Z,3.75
2024-05-09T11:58:47.342Z,3.85
2024-05-09T12:03:43.511Z,3.40
2024-05-09T12:06:10.436Z,4.88
2024-05-09T12:08:39.828Z,2.85
2024-05-09T12:11:06.784Z,3.45
2024-05-09T12:13:36.198Z,3.67
2024-05-09T12:16:06.285Z,3.65
2024-05-09T12:18:36.410Z,4.15
2024-05-09T12:21:03.449Z,5.03
2024-05-09T12:23:32.808Z,5.40
2024-05-09T12:25:59.674Z,4.82
2024-05-09T12:28:29.818Z,3.35
2024-05-09T12:30:56.654Z,3.53
2024-05-09T12:33:29.586Z,7.05
2024-05-09T12:35:56.479Z,2.95
2024-05-09T12:38:25.907Z,3.83
2024-05-09T12:40:52.998Z,4.63
2024-05-09T12:43:22.652Z,3.35
2024-05-09T12:45:49.778Z,4.20
2024-05-09T12:48:19.495Z,3.15
2024-05-09T12:50:49.133Z,3.03
2024-05-09T12:53:18.619Z,3.67
2024-05-09T12:55:53.446Z,3.58
2024-05-09T12:58:26.558Z,4.47
2024-05-09T13:00:53.618Z,3.53
2024-05-09T13:03:23.479Z,6.15
2024-05-09T13:05:53.086Z,2.83
2024-05-09T13:08:22.614Z,3.25
2024-05-09T13:10:50.362Z,4.53
2024-05-09T13:13:20.149Z,7.50
2024-05-09T13:15:47.137Z,3.72
2024-05-09T13:18:16.702Z,5.55
2024-05-09T13:20:44.343Z,3.25
2024-05-09T13:23:16.265Z,4.43
2024-05-09T13:25:43.101Z,2.70
2024-05-09T13:28:12.569Z,2.90
2024-05-09T13:30:41.790Z,2.38
2024-05-09T13:33:13.024Z,3.00
2024-05-09T13:35:45.013Z,3.88
2024-05-09T13:38:21.848Z,14.35
2024-05-09T13:40:50.022Z,7.32
2024-05-09T13:43:21.841Z,7.57
2024-05-09T13:45:49.137Z,11.82
2024-05-09T13:48:19.744Z,13.60
2024-05-09T13:50:46.937Z,6.55
2024-05-09T13:53:16.545Z,5.53
2024-05-09T13:55:45.950Z,5.20
2024-05-09T13:58:15.504Z,5.78
2024-05-09T14:00:47.267Z,2.95
2024-05-09T14:03:20.410Z,3.67
2024-05-09T14:05:49.328Z,2.63
2024-05-09T14:08:19.848Z,2.55
2024-05-09T14:10:50.017Z,3.58
2024-05-09T14:13:19.928Z,3.42
2024-05-09T14:15:47.086Z,3.22
2024-05-09T14:18:16.770Z,4.35
2024-05-09T14:20:43.710Z,4.35
2024-05-09T14:23:13.229Z,4.45
2024-05-09T14:25:42.498Z,11.88
2024-05-09T14:28:15.831Z,5.40
2024-05-09T14:30:43.100Z,10.20
2024-05-09T14:33:12.944Z,8.38
2024-05-09T14:35:39.928Z,5.95
2024-05-09T14:38:09.873Z,8.32
2024-05-09T14:40:42.160Z,5.72
2024-05-09T14:43:17.255Z,5.88
2024-05-09T14:45:44.774Z,6.03
2024-05-09T14:48:16.075Z,8.65
2024-05-09T14:50:43.001Z,8.80
2024-05-09T14:53:13.885Z,5.45
2024-05-09T14:55:43.009Z,7.07
2024-05-09T14:58:15.904Z,5.32
2024-05-09T15:00:49.708Z,6.28
2024-05-09T15:03:22.011Z,6.88
2024-05-09T15:05:49.832Z,5.57
2024-05-09T15:08:20.035Z,6.97
2024-05-09T15:10:50.551Z,5.35
2024-05-09T15:13:20.874Z,5.85
2024-05-09T15:15:50.695Z,4.78
2024-05-09T15:18:17.871Z,3.30
2024-05-09T15:20:48.145Z,4.35
2024-05-09T15:23:15.224Z,5.22
2024-05-09T15:25:44.764Z,4.63
2024-05-09T15:28:11.728Z,4.05
2024-05-09T15:30:46.224Z,4.22
2024-05-09T15:33:13.936Z,4.65
2024-05-09T15:35:44.835Z,4.40
2024-05-09T15:38:11.759Z,2.35
2024-05-09T15:40:41.397Z,3.55
2024-05-09T15:43:10.186Z,3.40
2024-05-09T15:45:43.560Z,3.17
2024-05-09T15:48:11.223Z,5.22
2024-05-09T15:50:42.467Z,2.92
2024-05-09T15:53:11.011Z,4.15
2024-05-09T15:55:41.288Z,2.30
2024-05-09T15:58:08.392Z,3.35
2024-05-09T16:00:41.433Z,4.10
2024-05-09T16:03:14.084Z,5.85
2024-05-09T16:05:46.922Z,3.40
2024-05-09T16:08:14.868Z,2.78
2024-05-09T16:10:46.003Z,3.47
2024-05-09T16:15:43.931Z,4.15
2024-05-09T16:18:13.555Z,6.65
2024-05-09T16:20:44.859Z,2.10
2024-05-09T16:23:13.256Z,2.65
2024-05-09T16:25:45.289Z,3.72
2024-05-09T16:28:12.241Z,3.05
2024-05-09T16:30:41.969Z,3.85
2024-05-09T16:33:09.626Z,3.80
2024-05-09T16:35:41.822Z,2.88
2024-05-09T16:38:08.920Z,8.88
2024-05-09T16:40:40.964Z,15.40
2024-05-09T16:43:08.820Z,2.65
2024-05-09T16:45:38.574Z,5.75
2024-05-09T16:48:06.919Z,34.08
2024-05-09T16:50:36.908Z,50.55
2024-05-09T16:53:07.078Z,47.03
2024-05-09T16:55:37.109Z,107.97
2024-05-09T16:58:04.891Z,218.45
2024-05-09T17:00:40.734Z,169.13
2024-05-09T17:03:11.419Z,270.45
2024-05-09T17:05:42.071Z,76.50
2024-05-09T17:08:12.351Z,83.78
2024-05-09T17:10:41.842Z,32.88
2024-05-09T17:13:09.900Z,42.50
2024-05-09T17:15:39.355Z,6.95
2024-05-09T17:18:09.790Z,4.28
2024-05-09T17:20:37.699Z,4.20
2024-05-09T17:23:12.875Z,2.92
2024-05-09T17:25:43.315Z,2.50
2024-05-09T17:28:12.993Z,4.35
2024-05-09T17:30:41.812Z,3.78
2024-05-09T17:33:13.353Z,4.88
2024-05-09T17:35:45.616Z,3.63
2024-05-09T17:40:41.911Z,10.20
2024-05-09T17:43:11.577Z,74.00
2024-05-09T17:45:41.886Z,40.50
2024-05-09T17:48:10.263Z,16.83
2024-05-09T17:50:41.689Z,30.23
2024-05-09T17:53:09.287Z,18.17
2024-05-09T17:55:38.810Z,8.10
2024-05-09T17:58:05.959Z,4.85
2024-05-09T18:00:41.145Z,22.15
2024-05-09T18:03:11.384Z,8.35
2024-05-09T18:05:42.717Z,5.15
2024-05-09T18:08:10.541Z,12.15
2024-05-09T18:10:40.675Z,4.97
2024-05-09T18:13:08.625Z,4.95
2024-05-09T18:15:41.269Z,2.45
2024-05-09T18:18:09.202Z,3.13
2024-05-09T18:20:43.830Z,2.72
2024-05-09T18:23:13.495Z,2.65
2024-05-09T18:25:43.505Z,3.13
2024-05-09T18:28:10.457Z,3.33
2024-05-09T18:30:43.105Z,3.72
2024-05-09T18:33:10.875Z,3.70
2024-05-09T18:35:40.731Z,5.60
2024-05-09T18:38:08.855Z,2.97
2024-05-09T18:40:39.761Z,5.97
2024-05-09T18:43:09.076Z,2.55
2024-05-09T18:45:39.284Z,3.53
2024-05-09T18:48:09.843Z,3.35
2024-05-09T18:50:41.354Z,3.13
2024-05-09T18:53:09.868Z,3.30
2024-05-09T18:55:39.487Z,4.05
2024-05-09T18:58:06.412Z,5.60
2024-05-09T19:00:38.957Z,4.60
2024-05-09T19:03:13.054Z,3.35
2024-05-09T19:05:45.251Z,5.53
2024-05-09T19:08:13.106Z,3.78
2024-05-09T19:10:42.612Z,4.75
2024-05-09T19:13:12.544Z,4.28
2024-05-09T19:15:43.982Z,4.45
2024-05-09T19:18:14.743Z,4.55
2024-05-09T19:20:44.927Z,4.25
2024-05-09T19:23:12.117Z,4.30
2024-05-09T19:25:41.581Z,3.83
2024-05-09T19:28:08.611Z,6.57
2024-05-09T19:30:41.426Z,5.65
2024-05-09T19:33:10.783Z,3.53
2024-05-09T19:35:44.370Z,4.00
2024-05-09T19:38:11.923Z,3.88
2024-05-09T19:40:41.443Z,4.70
2024-05-09T19:43:08.518Z,3.28
2024-05-09T19:45:38.082Z,3.83
2024-05-09T19:48:06.568Z,3.97
2024-05-09T19:50:42.053Z,4.45
2024-05-09T19:53:14.258Z,5.80
2024-05-09T19:55:44.048Z,6.00
2024-05-09T19:58:11.883Z,5.75
2024-05-09T20:00:43.821Z,8.68
2024-05-09T20:03:12.886Z,3.20
2024-05-09T20:05:42.952Z,3.40
2024-05-09T20:08:09.875Z,3.42
2024-05-09T20:10:41.861Z,4.43
2024-05-09T20:13:09.045Z,4.65
2024-05-09T20:15:39.903Z,7.38
2024-05-09T20:18:07.548Z,4.45
2024-05-09T20:20:41.454Z,4.75
2024-05-09T20:23:10.797Z,6.03
2024-05-09T20:25:43.068Z,6.65
2024-05-09T20:30:40.239Z,4.97
2024-05-09T20:33:08.776Z,5.07
2024-05-09T20:35:39.057Z,5.25
2024-05-09T20:38:06.053Z,7.78
2024-05-09T20:40:38.492Z,6.25
2024-05-09T20:43:09.667Z,4.68
2024-05-09T20:45:40.137Z,5.05
2024-05-09T20:48:08.934Z,4.93
2024-05-09T20:50:41.443Z,4.18
2024-05-09T20:53:10.676Z,4.60
2024-05-09T20:55:40.255Z,4.25
2024-05-09T20:58:10.088Z,3.78
2024-05-09T21:00:43.239Z,3.83
2024-05-09T21:03:13.153Z,4.35
2024-05-09T21:05:43.457Z,2.97
2024-05-09T21:08:10.381Z,4.38
2024-05-09T21:10:39.875Z,4.78
2024-05-09T21:13:09.539Z,4.22
2024-05-09T21:15:38.986Z,4.60
2024-05-09T21:18:06.070Z,5.32
2024-05-09T21:20:37.388Z,4.38
2024-05-09T21:23:04.610Z,4.70
2024-05-09T21:25:34.224Z,5.68
2024-05-09T21:28:01.296Z,5.32
2024-05-09T21:30:41.223Z,5.82
2024-05-09T21:33:11.548Z,5.15
2024-05-09T21:35:42.866Z,5.05
2024-05-09T21:38:10.024Z,4.10
2024-05-09T21:40:39.798Z,4.30
2024-05-09T21:43:07.725Z,6.15
2024-05-09T21:45:40.064Z,4.72
2024-05-09T21:48:08.099Z,5.88
2024-05-09T21:50:41.031Z,4.53
2024-05-09T21:53:09.543Z,4.53
2024-05-09T21:55:38.997Z,4.22
2024-05-09T21:58:05.910Z,5.18
2024-05-09T22:00:38.202Z,9.07
2024-05-09T22:03:09.930Z,5.90
2024-05-09T22:05:43.626Z,5.78
2024-05-09T22:08:10.901Z,5.47
2024-05-09T22:10:40.473Z,6.93
2024-05-09T22:13:08.001Z,5.82
2024-05-09T22:15:39.831Z,6.07
2024-05-09T22:20:45.030Z,4.32
2024-05-09T22:23:13.100Z,6.20
2024-05-09T22:25:42.597Z,4.22
2024-05-09T22:28:09.803Z,5.85
2024-05-09T22:30:40.259Z,6.97
2024-05-09T22:33:11.667Z,4.80
2024-05-09T22:35:41.836Z,4.97
2024-05-09T22:38:09.014Z,3.67
2024-05-09T22:40:46.688Z,5.13
2024-05-09T22:43:17.903Z,7.25
2024-05-09T22:45:47.510Z,4.72
2024-05-09T22:48:17.463Z,5.75
2024-05-09T22:50:47.498Z,5.53
2024-05-09T22:53:14.361Z,5.10
2024-05-09T22:55:43.864Z,4.50
2024-05-09T22:58:10.972Z,4.93
2024-05-09T23:00:40.573Z,4.68
2024-05-09T23:03:07.493Z,6.78
2024-05-09T23:05:39.563Z,5.95
2024-05-09T23:08:07.189Z,5.88
2024-05-09T23:10:38.075Z,3.80
2024-05-09T23:13:05.983Z,3.90
2024-05-09T23:15:35.665Z,3.03
2024-05-09T23:18:02.659Z,4.57
2024-05-09T23:20:37.460Z,3.85
2024-05-09T23:23:10.617Z,3.58
2024-05-09T23:25:41.759Z,4.93
2024-05-09T23:28:11.875Z,6.18
2024-05-09T23:30:40.686Z,5.35
2024-05-09T23:33:12.764Z,5.18
2024-05-09T23:35:41.154Z,4.38
2024-05-09T23:38:13.432Z,3.55
2024-05-09T23:40:41.891Z,3.70
2024-05-09T23:43:13.078Z,5.13
2024-05-09T23:45:40.415Z,5.07
2024-05-09T23:48:10.856Z,5.38
2024-05-09T23:50:39.541Z,4.63
2024-05-09T23:53:14.236Z,3.97
2024-05-09T23:55:41.187Z,5.10
2024-05-09T23:58:11.288Z,2.90
